Terminal Aerodrome Forecast
Issued by NWS Bismarck, ND

Home | Current Version | Previous Version | Graphics & Text | Print | Product List | Glossary On
Versions: 1 2 3 4 5 6 7 8 9 10 11 12 13 14 15 16 17 18 19 20 21 22 23 24
000
FTUS43 KBIS 190522
TAFBIS
TAF
KBIS 190522Z 1906/2006 00000KT P6SM SKC
     FM191000 00000KT 6SM BR SCT020
     FM191500 VRB03KT P6SM SCT025
     FM191900 12005KT P6SM FEW070=

USA.gov is the U.S. government's official web portal to all federal, state and local government web resources and services.